sensor_id;sensor_type;location;lat;lon;timestamp;temperature;humidity
74873;HTU21D;68776;44.762;37.698;2023-05-07T07:28:00;15.59;66.89
74873;HTU21D;68776;44.762;37.698;2023-05-07T07:30:54;15.66;68.23
74873;HTU21D;68776;44.762;37.698;2023-05-07T07:31:55;15.67;68.60
74873;HTU21D;68776;44.762;37.698;2023-05-07T07:32:56;15.72;68.81
74873;HTU21D;68776;44.762;37.698;2023-05-07T07:34:02;15.78;69.04
74873;HTU21D;68776;44.762;37.698;2023-05-07T07:35:04;15.76;69.22
74873;HTU21D;68776;44.762;37.698;2023-05-07T07:36:06;15.75;69.39
74873;HTU21D;68776;44.762;37.698;2023-05-07T07:37:08;15.83;69.44
74873;HTU21D;68776;44.762;37.698;2023-05-07T07:38:10;15.89;69.49
74873;HTU21D;68776;44.762;37.698;2023-05-07T07:39:12;15.92;69.42
74873;HTU21D;68776;44.762;37.698;2023-05-07T07:40:14;16.01;69.29
74873;HTU21D;68776;44.762;37.698;2023-05-07T07:41:15;16.04;69.23
74873;HTU21D;68776;44.762;37.698;2023-05-07T07:42:16;16.07;69.26
74873;HTU21D;68776;44.762;37.698;2023-05-07T07:43:17;16.11;69.22
74873;HTU21D;68776;44.762;37.698;2023-05-07T07:44:18;16.13;69.26
74873;HTU21D;68776;44.762;37.698;2023-05-07T07:45:24;16.15;69.27
74873;HTU21D;68776;44.762;37.698;2023-05-07T07:46:26;16.14;69.26
74873;HTU21D;68776;44.762;37.698;2023-05-07T07:47:28;16.20;69.29
74873;HTU21D;68776;44.762;37.698;2023-05-07T07:48:29;16.28;69.13
74873;HTU21D;68776;44.762;37.698;2023-05-07T07:49:30;16.33;69.02
74873;HTU21D;68776;44.762;37.698;2023-05-07T07:50:34;16.35;69.00
74873;HTU21D;68776;44.762;37.698;2023-05-07T07:51:35;16.35;69.04
74873;HTU21D;68776;44.762;37.698;2023-05-07T07:52:37;16.36;69.06
74873;HTU21D;68776;44.762;37.698;2023-05-07T07:53:38;16.35;69.06
74873;HTU21D;68776;44.762;37.698;2023-05-07T07:54:40;16.34;69.10
74873;HTU21D;68776;44.762;37.698;2023-05-07T07:55:41;16.37;69.08
74873;HTU21D;68776;44.762;37.698;2023-05-07T07:56:44;16.39;68.98
74873;HTU21D;68776;44.762;37.698;2023-05-07T07:57:47;16.44;68.87
74873;HTU21D;68776;44.762;37.698;2023-05-07T07:58:48;16.48;68.73
74873;HTU21D;68776;44.762;37.698;2023-05-07T07:59:50;16.48;68.74
74873;HTU21D;68776;44.762;37.698;2023-05-07T08:00:51;16.55;68.65
74873;HTU21D;68776;44.762;37.698;2023-05-07T08:01:52;16.63;68.48
74873;HTU21D;68776;44.762;37.698;2023-05-07T08:02:56;16.70;68.27
74873;HTU21D;68776;44.762;37.698;2023-05-07T08:04:02;16.77;68.17
74873;HTU21D;68776;44.762;37.698;2023-05-07T08:05:06;16.85;68.06
74873;HTU21D;68776;44.762;37.698;2023-05-07T08:06:07;16.82;68.01
74873;HTU21D;68776;44.762;37.698;2023-05-07T08:07:10;16.86;68.04
74873;HTU21D;68776;44.762;37.698;2023-05-07T08:08:15;16.89;68.03
74873;HTU21D;68776;44.762;37.698;2023-05-07T08:09:17;16.88;68.10
74873;HTU21D;68776;44.762;37.698;2023-05-07T08:10:19;16.81;68.22
74873;HTU21D;68776;44.762;37.698;2023-05-07T08:11:27;16.74;68.43
74873;HTU21D;68776;44.762;37.698;2023-05-07T08:12:30;16.78;68.39
74873;HTU21D;68776;44.762;37.698;2023-05-07T08:13:31;16.78;68.34
74873;HTU21D;68776;44.762;37.698;2023-05-07T08:14:34;16.77;68.42
74873;HTU21D;68776;44.762;37.698;2023-05-07T08:15:35;16.76;68.48
74873;HTU21D;68776;44.762;37.698;2023-05-07T08:16:37;16.75;68.41
74873;HTU21D;68776;44.762;37.698;2023-05-07T08:17:37;16.71;68.45
74873;HTU21D;68776;44.762;37.698;2023-05-07T08:18:38;16.72;68.48
74873;HTU21D;68776;44.762;37.698;2023-05-07T08:19:40;16.80;68.30
74873;HTU21D;68776;44.762;37.698;2023-05-07T08:20:43;16.76;68.29
74873;HTU21D;68776;44.762;37.698;2023-05-07T08:21:49;16.69;68.36
74873;HTU21D;68776;44.762;37.698;2023-05-07T08:22:51;16.67;68.42
74873;HTU21D;68776;44.762;37.698;2023-05-07T08:23:53;16.73;68.37
74873;HTU21D;68776;44.762;37.698;2023-05-07T08:24:54;16.76;68.29
74873;HTU21D;68776;44.762;37.698;2023-05-07T08:25:55;16.81;68.20
74873;HTU21D;68776;44.762;37.698;2023-05-07T08:26:56;16.84;68.15
74873;HTU21D;68776;44.762;37.698;2023-05-07T08:27:57;16.88;68.12
74873;HTU21D;68776;44.762;37.698;2023-05-07T08:28:58;16.92;68.06
74873;HTU21D;68776;44.762;37.698;2023-05-07T08:29:59;16.94;67.97
74873;HTU21D;68776;44.762;37.698;2023-05-07T08:31:02;16.95;67.92
74873;HTU21D;68776;44.762;37.698;2023-05-07T08:32:06;16.86;68.00
74873;HTU21D;68776;44.762;37.698;2023-05-07T08:33:08;16.76;68.17
74873;HTU21D;68776;44.762;37.698;2023-05-07T08:34:10;16.74;68.25
74873;HTU21D;68776;44.762;37.698;2023-05-07T08:35:14;16.77;68.21
74873;HTU21D;68776;44.762;37.698;2023-05-07T08:36:15;16.80;68.11
74873;HTU21D;68776;44.762;37.698;2023-05-07T08:37:16;16.87;67.97
74873;HTU21D;68776;44.762;37.698;2023-05-07T08:38:18;16.85;67.94
74873;HTU21D;68776;44.762;37.698;2023-05-07T08:39:19;16.86;67.91
74873;HTU21D;68776;44.762;37.698;2023-05-07T08:40:26;16.77;67.98
74873;HTU21D;68776;44.762;37.698;2023-05-07T08:41:29;16.76;68.09
74873;HTU21D;68776;44.762;37.698;2023-05-07T08:42:31;16.76;68.07
74873;HTU21D;68776;44.762;37.698;2023-05-07T08:43:36;16.64;68.24
74873;HTU21D;68776;44.762;37.698;2023-05-07T08:44:39;16.63;68.28
74873;HTU21D;68776;44.762;37.698;2023-05-07T08:45:41;16.62;68.26
74873;HTU21D;68776;44.762;37.698;2023-05-07T08:46:45;16.59;68.34
74873;HTU21D;68776;44.762;37.698;2023-05-07T08:47:52;16.51;68.45
74873;HTU21D;68776;44.762;37.698;2023-05-07T08:48:58;16.46;68.57
74873;HTU21D;68776;44.762;37.698;2023-05-07T08:49:59;16.41;68.70
74873;HTU21D;68776;44.762;37.698;2023-05-07T08:51:00;16.37;68.75
74873;HTU21D;68776;44.762;37.698;2023-05-07T08:52:01;16.33;68.74
74873;HTU21D;68776;44.762;37.698;2023-05-07T08:53:03;16.28;68.84
74873;HTU21D;68776;44.762;37.698;2023-05-07T08:54:05;16.30;68.84
74873;HTU21D;68776;44.762;37.698;2023-05-07T08:55:08;16.28;68.84
74873;HTU21D;68776;44.762;37.698;2023-05-07T08:56:10;16.29;68.84
74873;HTU21D;68776;44.762;37.698;2023-05-07T08:57:11;16.35;68.77
74873;HTU21D;68776;44.762;37.698;2023-05-07T08:58:12;16.41;68.61
74873;HTU21D;68776;44.762;37.698;2023-05-07T08:59:14;16.49;68.49
74873;HTU21D;68776;44.762;37.698;2023-05-07T09:00:17;16.57;68.26
74873;HTU21D;68776;44.762;37.698;2023-05-07T09:01:19;16.62;68.11
74873;HTU21D;68776;44.762;37.698;2023-05-07T09:02:25;16.70;68.03
74873;HTU21D;68776;44.762;37.698;2023-05-07T09:03:26;16.74;67.91
74873;HTU21D;68776;44.762;37.698;2023-05-07T09:04:29;16.78;67.78
74873;HTU21D;68776;44.762;37.698;2023-05-07T09:05:32;16.86;67.71
74873;HTU21D;68776;44.762;37.698;2023-05-07T09:06:34;16.95;67.55
74873;HTU21D;68776;44.762;37.698;2023-05-07T09:07:36;17.07;67.43
74873;HTU21D;68776;44.762;37.698;2023-05-07T09:08:39;17.21;67.14
74873;HTU21D;68776;44.762;37.698;2023-05-07T09:09:42;17.31;66.95
74873;HTU21D;68776;44.762;37.698;2023-05-07T09:10:45;17.32;66.88
74873;HTU21D;68776;44.762;37.698;2023-05-07T09:11:46;17.36;66.91
74873;HTU21D;68776;44.762;37.698;2023-05-07T09:12:48;17.37;66.81
74873;HTU21D;68776;44.762;37.698;2023-05-07T09:13:57;17.46;66.74
74873;HTU21D;68776;44.762;37.698;2023-05-07T09:15:04;17.58;66.56
74873;HTU21D;68776;44.762;37.698;2023-05-07T09:16:10;17.65;66.33
74873;HTU21D;68776;44.762;37.698;2023-05-07T09:17:14;17.67;66.20
74873;HTU21D;68776;44.762;37.698;2023-05-07T09:18:15;17.66;66.16
74873;HTU21D;68776;44.762;37.698;2023-05-07T09:19:22;17.68;66.24
74873;HTU21D;68776;44.762;37.698;2023-05-07T09:20:24;17.76;66.15
74873;HTU21D;68776;44.762;37.698;2023-05-07T09:21:25;17.80;66.02
74873;HTU21D;68776;44.762;37.698;2023-05-07T09:22:31;17.82;65.97
74873;HTU21D;68776;44.762;37.698;2023-05-07T09:23:36;17.84;65.86
74873;HTU21D;68776;44.762;37.698;2023-05-07T09:24:37;17.93;65.78
74873;HTU21D;68776;44.762;37.698;2023-05-07T09:25:43;17.99;65.61
74873;HTU21D;68776;44.762;37.698;2023-05-07T09:26:51;17.97;65.59
74873;HTU21D;68776;44.762;37.698;2023-05-07T09:27:52;18.00;65.50
74873;HTU21D;68776;44.762;37.698;2023-05-07T09:28:53;18.07;65.43
74873;HTU21D;68776;44.762;37.698;2023-05-07T09:29:55;18.07;65.50
74873;HTU21D;68776;44.762;37.698;2023-05-07T09:30:56;18.06;65.46
74873;HTU21D;68776;44.762;37.698;2023-05-07T09:31:57;18.05;65.48
74873;HTU21D;68776;44.762;37.698;2023-05-07T09:32:59;18.09;65.45
74873;HTU21D;68776;44.762;37.698;2023-05-07T09:34:00;18.21;65.24
74873;HTU21D;68776;44.762;37.698;2023-05-07T09:35:04;18.32;64.90
74873;HTU21D;68776;44.762;37.698;2023-05-07T09:36:07;18.28;64.82
74873;HTU21D;68776;44.762;37.698;2023-05-07T09:37:12;18.32;64.74
74873;HTU21D;68776;44.762;37.698;2023-05-07T09:38:13;18.40;64.61
74873;HTU21D;68776;44.762;37.698;2023-05-07T09:39:14;18.51;64.44
74873;HTU21D;68776;44.762;37.698;2023-05-07T09:40:23;18.58;64.24
74873;HTU21D;68776;44.762;37.698;2023-05-07T09:41:24;18.58;64.23
74873;HTU21D;68776;44.762;37.698;2023-05-07T09:42:48;18.51;64.40
74873;HTU21D;68776;44.762;37.698;2023-05-07T09:43:54;18.47;64.56
74873;HTU21D;68776;44.762;37.698;2023-05-07T09:44:59;18.40;64.71
74873;HTU21D;68776;44.762;37.698;2023-05-07T09:46:11;18.39;64.79
74873;HTU21D;68776;44.762;37.698;2023-05-07T09:47:18;18.42;64.64
74873;HTU21D;68776;44.762;37.698;2023-05-07T09:48:22;18.39;64.58
74873;HTU21D;68776;44.762;37.698;2023-05-07T09:49:28;18.39;64.61
74873;HTU21D;68776;44.762;37.698;2023-05-07T09:50:48;18.32;64.65
74873;HTU21D;68776;44.762;37.698;2023-05-07T09:51:52;18.26;64.82
74873;HTU21D;68776;44.762;37.698;2023-05-07T09:52:57;18.21;64.85
74873;HTU21D;68776;44.762;37.698;2023-05-07T09:54:00;18.17;64.98
74873;HTU21D;68776;44.762;37.698;2023-05-07T09:55:06;18.18;65.02
74873;HTU21D;68776;44.762;37.698;2023-05-07T09:56:09;18.14;64.92
74873;HTU21D;68776;44.762;37.698;2023-05-07T09:57:11;18.11;65.01
74873;HTU21D;68776;44.762;37.698;2023-05-07T09:58:16;18.13;64.95
74873;HTU21D;68776;44.762;37.698;2023-05-07T09:59:20;18.13;64.95
74873;HTU21D;68776;44.762;37.698;2023-05-07T10:00:22;18.14;64.95
74873;HTU21D;68776;44.762;37.698;2023-05-07T10:01:36;18.17;64.86
74873;HTU21D;68776;44.762;37.698;2023-05-07T10:02:39;18.17;64.86
74873;HTU21D;68776;44.762;37.698;2023-05-07T10:03:47;18.20;64.83
74873;HTU21D;68776;44.762;37.698;2023-05-07T10:04:49;18.25;64.72
74873;HTU21D;68776;44.762;37.698;2023-05-07T10:05:55;18.32;64.59
74873;HTU21D;68776;44.762;37.698;2023-05-07T10:06:57;18.32;64.56
74873;HTU21D;68776;44.762;37.698;2023-05-07T10:08:00;18.36;64.55
74873;HTU21D;68776;44.762;37.698;2023-05-07T10:09:05;18.39;64.45
74873;HTU21D;68776;44.762;37.698;2023-05-07T10:10:07;18.41;64.40
74873;HTU21D;68776;44.762;37.698;2023-05-07T10:11:12;18.50;64.21
74873;HTU21D;68776;44.762;37.698;2023-05-07T10:12:16;18.61;63.99
74873;HTU21D;68776;44.762;37.698;2023-05-07T10:13:19;18.62;63.92
74873;HTU21D;68776;44.762;37.698;2023-05-07T10:14:24;18.62;63.96
74873;HTU21D;68776;44.762;37.698;2023-05-07T10:15:26;18.58;63.95
74873;HTU21D;68776;44.762;37.698;2023-05-07T10:16:32;18.56;63.89
74873;HTU21D;68776;44.762;37.698;2023-05-07T10:17:40;18.54;64.02
74873;HTU21D;68776;44.762;37.698;2023-05-07T10:18:43;18.48;64.14
74873;HTU21D;68776;44.762;37.698;2023-05-07T10:19:50;18.41;64.41
74873;HTU21D;68776;44.762;37.698;2023-05-07T10:20:54;18.40;64.50
74873;HTU21D;68776;44.762;37.698;2023-05-07T10:22:03;18.43;64.50
74873;HTU21D;68776;44.762;37.698;2023-05-07T10:23:08;18.50;64.44
74873;HTU21D;68776;44.762;37.698;2023-05-07T10:24:27;18.52;64.43
74873;HTU21D;68776;44.762;37.698;2023-05-07T10:25:31;18.50;64.51
74873;HTU21D;68776;44.762;37.698;2023-05-07T10:26:37;18.51;64.53
74873;HTU21D;68776;44.762;37.698;2023-05-07T10:27:39;18.46;64.62
74873;HTU21D;68776;44.762;37.698;2023-05-07T10:28:45;18.28;64.91
74873;HTU21D;68776;44.762;37.698;2023-05-07T10:30:26;18.18;65.27
74873;HTU21D;68776;44.762;37.698;2023-05-07T10:32:49;18.11;65.42
74873;HTU21D;68776;44.762;37.698;2023-05-07T10:33:59;18.15;65.40
74873;HTU21D;68776;44.762;37.698;2023-05-07T10:35:03;18.17;65.39
74873;HTU21D;68776;44.762;37.698;2023-05-07T10:36:06;18.21;65.37
74873;HTU21D;68776;44.762;37.698;2023-05-07T10:37:09;18.25;65.27
74873;HTU21D;68776;44.762;37.698;2023-05-07T10:38:11;18.24;65.21
74873;HTU21D;68776;44.762;37.698;2023-05-07T10:39:15;18.25;65.21
74873;HTU21D;68776;44.762;37.698;2023-05-07T10:40:16;18.26;65.22
74873;HTU21D;68776;44.762;37.698;2023-05-07T10:41:19;18.17;65.33
74873;HTU21D;68776;44.762;37.698;2023-05-07T10:42:21;18.09;65.46
74873;HTU21D;68776;44.762;37.698;2023-05-07T10:43:41;18.06;65.61
74873;HTU21D;68776;44.762;37.698;2023-05-07T10:44:43;18.04;65.66
74873;HTU21D;68776;44.762;37.698;2023-05-07T10:46:13;18.02;65.73
74873;HTU21D;68776;44.762;37.698;2023-05-07T10:47:17;18.00;65.81
74873;HTU21D;68776;44.762;37.698;2023-05-07T10:48:22;18.05;65.82
74873;HTU21D;68776;44.762;37.698;2023-05-07T10:49:28;18.10;65.71
74873;HTU21D;68776;44.762;37.698;2023-05-07T10:50:35;18.08;65.75
74873;HTU21D;68776;44.762;37.698;2023-05-07T10:51:38;18.09;65.79
74873;HTU21D;68776;44.762;37.698;2023-05-07T10:54:32;18.14;65.71
74873;HTU21D;68776;44.762;37.698;2023-05-07T10:55:41;18.12;65.69
74873;HTU21D;68776;44.762;37.698;2023-05-07T10:56:50;17.98;65.90
74873;HTU21D;68776;44.762;37.698;2023-05-07T10:58:23;17.82;66.23
74873;HTU21D;68776;44.762;37.698;2023-05-07T10:59:31;17.81;66.30
74873;HTU21D;68776;44.762;37.698;2023-05-07T11:02:01;17.93;66.07
74873;HTU21D;68776;44.762;37.698;2023-05-07T11:03:10;18.00;65.99
74873;HTU21D;68776;44.762;37.698;2023-05-07T11:04:27;18.05;65.88
74873;HTU21D;68776;44.762;37.698;2023-05-07T11:05:37;17.99;65.93
74873;HTU21D;68776;44.762;37.698;2023-05-07T11:08:09;17.73;66.43
74873;HTU21D;68776;44.762;37.698;2023-05-07T11:09:20;17.63;66.72
74873;HTU21D;68776;44.762;37.698;2023-05-07T11:10:54;17.59;66.86
74873;HTU21D;68776;44.762;37.698;2023-05-07T11:13:45;17.46;67.11
74873;HTU21D;68776;44.762;37.698;2023-05-07T11:14:54;17.43;67.21
74873;HTU21D;68776;44.762;37.698;2023-05-07T11:16:20;17.38;67.28
74873;HTU21D;68776;44.762;37.698;2023-05-07T11:17:25;17.39;67.30
74873;HTU21D;68776;44.762;37.698;2023-05-07T11:18:48;17.38;67.31
74873;HTU21D;68776;44.762;37.698;2023-05-07T11:19:54;17.41;67.27
74873;HTU21D;68776;44.762;37.698;2023-05-07T11:21:35;17.44;67.21
74873;HTU21D;68776;44.762;37.698;2023-05-07T11:22:49;17.41;67.23
74873;HTU21D;68776;44.762;37.698;2023-05-07T11:24:14;17.40;67.27
74873;HTU21D;68776;44.762;37.698;2023-05-07T11:25:28;17.34;67.39
74873;HTU21D;68776;44.762;37.698;2023-05-07T11:27:46;17.39;67.35
74873;HTU21D;68776;44.762;37.698;2023-05-07T11:28:47;17.44;67.24
74873;HTU21D;68776;44.762;37.698;2023-05-07T11:29:50;17.47;67.20
74873;HTU21D;68776;44.762;37.698;2023-05-07T11:30:52;17.40;67.33
74873;HTU21D;68776;44.762;37.698;2023-05-07T11:31:55;17.38;67.40
74873;HTU21D;68776;44.762;37.698;2023-05-07T11:32:59;17.39;67.43
74873;HTU21D;68776;44.762;37.698;2023-05-07T11:34:00;17.43;67.40
74873;HTU21D;68776;44.762;37.698;2023-05-07T11:35:01;17.45;67.39
74873;HTU21D;68776;44.762;37.698;2023-05-07T11:36:03;17.43;67.44
74873;HTU21D;68776;44.762;37.698;2023-05-07T11:37:09;17.43;67.55
74873;HTU21D;68776;44.762;37.698;2023-05-07T11:38:19;17.46;67.44
74873;HTU21D;68776;44.762;37.698;2023-05-07T11:39:31;17.39;67.52
74873;HTU21D;68776;44.762;37.698;2023-05-07T11:40:33;17.36;67.67
74873;HTU21D;68776;44.762;37.698;2023-05-07T11:41:35;17.35;67.65
74873;HTU21D;68776;44.762;37.698;2023-05-07T11:42:38;17.37;67.63
74873;HTU21D;68776;44.762;37.698;2023-05-07T11:43:54;17.32;67.73
74873;HTU21D;68776;44.762;37.698;2023-05-07T11:44:58;17.31;67.78
74873;HTU21D;68776;44.762;37.698;2023-05-07T11:46:07;17.30;67.80
74873;HTU21D;68776;44.762;37.698;2023-05-07T11:47:10;17.34;67.74
74873;HTU21D;68776;44.762;37.698;2023-05-07T11:48:12;17.37;67.65
74873;HTU21D;68776;44.762;37.698;2023-05-07T11:49:13;17.36;67.66
74873;HTU21D;68776;44.762;37.698;2023-05-07T11:50:14;17.36;67.72
74873;HTU21D;68776;44.762;37.698;2023-05-07T11:51:22;17.34;67.72
74873;HTU21D;68776;44.762;37.698;2023-05-07T11:52:24;17.33;67.77
74873;HTU21D;68776;44.762;37.698;2023-05-07T11:53:26;17.37;67.75
74873;HTU21D;68776;44.762;37.698;2023-05-07T11:54:35;17.43;67.65
74873;HTU21D;68776;44.762;37.698;2023-05-07T11:55:36;17.43;67.62
74873;HTU21D;68776;44.762;37.698;2023-05-07T11:56:37;17.45;67.59
74873;HTU21D;68776;44.762;37.698;2023-05-07T11:57:39;17.49;67.51
74873;HTU21D;68776;44.762;37.698;2023-05-07T11:58:41;17.50;67.46
74873;HTU21D;68776;44.762;37.698;2023-05-07T11:59:42;17.48;67.52
74873;HTU21D;68776;44.762;37.698;2023-05-07T12:00:51;17.48;67.53
74873;HTU21D;68776;44.762;37.698;2023-05-07T12:01:52;17.49;67.52
74873;HTU21D;68776;44.762;37.698;2023-05-07T12:03:03;17.46;67.56
74873;HTU21D;68776;44.762;37.698;2023-05-07T12:04:04;17.48;67.52
74873;HTU21D;68776;44.762;37.698;2023-05-07T12:05:06;17.52;67.39
74873;HTU21D;68776;44.762;37.698;2023-05-07T12:06:07;17.56;67.27
74873;HTU21D;68776;44.762;37.698;2023-05-07T12:07:12;17.61;67.23
74873;HTU21D;68776;44.762;37.698;2023-05-07T12:08:18;17.61;67.27
74873;HTU21D;68776;44.762;37.698;2023-05-07T12:09:19;17.62;67.29
74873;HTU21D;68776;44.762;37.698;2023-05-07T12:10:20;17.63;67.28
74873;HTU21D;68776;44.762;37.698;2023-05-07T12:11:27;17.64;67.26
74873;HTU21D;68776;44.762;37.698;2023-05-07T12:12:28;17.63;67.28
74873;HTU21D;68776;44.762;37.698;2023-05-07T12:13:30;17.65;67.31
74873;HTU21D;68776;44.762;37.698;2023-05-07T12:14:31;17.67;67.33
74873;HTU21D;68776;44.762;37.698;2023-05-07T12:15:35;17.64;67.49
74873;HTU21D;68776;44.762;37.698;2023-05-07T12:16:36;17.62;67.65
74873;HTU21D;68776;44.762;37.698;2023-05-07T12:17:37;17.59;67.78
74873;HTU21D;68776;44.762;37.698;2023-05-07T12:18:39;17.58;67.83
74873;HTU21D;68776;44.762;37.698;2023-05-07T12:19:42;17.59;67.84
74873;HTU21D;68776;44.762;37.698;2023-05-07T12:20:44;17.61;67.91
74873;HTU21D;68776;44.762;37.698;2023-05-07T12:21:46;17.63;67.86
74873;HTU21D;68776;44.762;37.698;2023-05-07T12:22:47;17.68;67.69
74873;HTU21D;68776;44.762;37.698;2023-05-07T12:23:50;17.72;67.57
74873;HTU21D;68776;44.762;37.698;2023-05-07T12:24:58;17.74;67.51
74873;HTU21D;68776;44.762;37.698;2023-05-07T12:26:01;17.70;67.53
74873;HTU21D;68776;44.762;37.698;2023-05-07T12:27:04;17.73;67.55
74873;HTU21D;68776;44.762;37.698;2023-05-07T12:28:07;17.70;67.67
74873;HTU21D;68776;44.762;37.698;2023-05-07T12:29:08;17.74;67.59
74873;HTU21D;68776;44.762;37.698;2023-05-07T12:30:10;17.78;67.49
74873;HTU21D;68776;44.762;37.698;2023-05-07T12:31:13;17.81;67.39
74873;HTU21D;68776;44.762;37.698;2023-05-07T12:32:19;17.84;67.35
74873;HTU21D;68776;44.762;37.698;2023-05-07T12:33:25;17.87;67.36
74873;HTU21D;68776;44.762;37.698;2023-05-07T12:34:26;17.85;67.40
74873;HTU21D;68776;44.762;37.698;2023-05-07T12:35:32;17.88;67.42
74873;HTU21D;68776;44.762;37.698;2023-05-07T12:36:40;17.88;67.46
74873;HTU21D;68776;44.762;37.698;2023-05-07T12:37:41;17.88;67.44
74873;HTU21D;68776;44.762;37.698;2023-05-07T12:38:49;17.87;67.47
74873;HTU21D;68776;44.762;37.698;2023-05-07T12:40:12;17.92;67.43
74873;HTU21D;68776;44.762;37.698;2023-05-07T12:41:13;17.88;67.51
74873;HTU21D;68776;44.762;37.698;2023-05-07T12:42:20;17.82;67.69
74873;HTU21D;68776;44.762;37.698;2023-05-07T12:43:28;17.81;67.81
74873;HTU21D;68776;44.762;37.698;2023-05-07T12:44:31;17.79;67.91
74873;HTU21D;68776;44.762;37.698;2023-05-07T12:45:42;17.83;67.81
74873;HTU21D;68776;44.762;37.698;2023-05-07T12:46:43;17.83;67.81
74873;HTU21D;68776;44.762;37.698;2023-05-07T12:47:45;17.84;67.85
74873;HTU21D;68776;44.762;37.698;2023-05-07T12:48:48;17.81;67.85
74873;HTU21D;68776;44.762;37.698;2023-05-07T12:49:49;17.78;67.94
74873;HTU21D;68776;44.762;37.698;2023-05-07T12:50:51;17.76;68.03
74873;HTU21D;68776;44.762;37.698;2023-05-07T12:51:53;17.76;68.14
74873;HTU21D;68776;44.762;37.698;2023-05-07T12:52:54;17.77;68.17
74873;HTU21D;68776;44.762;37.698;2023-05-07T12:53:56;17.76;68.16
74873;HTU21D;68776;44.762;37.698;2023-05-07T12:55:05;17.64;68.39
74873;HTU21D;68776;44.762;37.698;2023-05-07T12:56:07;17.55;68.58
74873;HTU21D;68776;44.762;37.698;2023-05-07T12:57:09;17.58;68.60
74873;HTU21D;68776;44.762;37.698;2023-05-07T12:58:17;17.56;68.61
74873;HTU21D;68776;44.762;37.698;2023-05-07T12:59:19;17.58;68.62
74873;HTU21D;68776;44.762;37.698;2023-05-07T13:00:34;17.62;68.59
74873;HTU21D;68776;44.762;37.698;2023-05-07T13:01:35;17.61;68.51
74873;HTU21D;68776;44.762;37.698;2023-05-07T13:02:41;17.59;68.52
74873;HTU21D;68776;44.762;37.698;2023-05-07T13:03:48;17.55;68.55
74873;HTU21D;68776;44.762;37.698;2023-05-07T13:04:50;17.55;68.55
74873;HTU21D;68776;44.762;37.698;2023-05-07T13:05:52;17.50;68.56
74873;HTU21D;68776;44.762;37.698;2023-05-07T13:06:53;17.48;68.61
74873;HTU21D;68776;44.762;37.698;2023-05-07T13:07:55;17.46;68.69
74873;HTU21D;68776;44.762;37.698;2023-05-07T13:08:56;17.43;68.74
74873;HTU21D;68776;44.762;37.698;2023-05-07T13:09:57;17.39;68.81
74873;HTU21D;68776;44.762;37.698;2023-05-07T13:10:59;17.38;68.86
74873;HTU21D;68776;44.762;37.698;2023-05-07T13:12:04;17.36;68.92
74873;HTU21D;68776;44.762;37.698;2023-05-07T13:13:05;17.34;68.99
74873;HTU21D;68776;44.762;37.698;2023-05-07T13:14:06;17.34;69.00
74873;HTU21D;68776;44.762;37.698;2023-05-07T13:15:07;17.33;69.00
74873;HTU21D;68776;44.762;37.698;2023-05-07T13:16:09;17.31;69.06
74873;HTU21D;68776;44.762;37.698;2023-05-07T13:17:11;17.30;69.10
74873;HTU21D;68776;44.762;37.698;2023-05-07T13:18:12;17.32;69.10
74873;HTU21D;68776;44.762;37.698;2023-05-07T13:19:13;17.34;69.01
74873;HTU21D;68776;44.762;37.698;2023-05-07T13:20:14;17.37;69.00
74873;HTU21D;68776;44.762;37.698;2023-05-07T13:21:16;17.35;69.06
74873;HTU21D;68776;44.762;37.698;2023-05-07T13:22:16;17.35;69.12
74873;HTU21D;68776;44.762;37.698;2023-05-07T13:23:17;17.33;69.20
74873;HTU21D;68776;44.762;37.698;2023-05-07T13:24:18;17.31;69.27
74873;HTU21D;68776;44.762;37.698;2023-05-07T13:25:20;17.30;69.33
74873;HTU21D;68776;44.762;37.698;2023-05-07T13:26:21;17.31;69.37
74873;HTU21D;68776;44.762;37.698;2023-05-07T13:27:22;17.31;69.42
74873;HTU21D;68776;44.762;37.698;2023-05-07T13:28:24;17.32;69.42
74873;HTU21D;68776;44.762;37.698;2023-05-07T13:29:25;17.33;69.36
74873;HTU21D;68776;44.762;37.698;2023-05-07T13:30:30;17.33;69.36
74873;HTU21D;68776;44.762;37.698;2023-05-07T13:31:31;17.39;69.27
74873;HTU21D;68776;44.762;37.698;2023-05-07T13:32:33;17.40;69.24
74873;HTU21D;68776;44.762;37.698;2023-05-07T13:33:34;17.40;69.20
74873;HTU21D;68776;44.762;37.698;2023-05-07T13:34:35;17.43;69.20
74873;HTU21D;68776;44.762;37.698;2023-05-07T13:35:36;17.46;69.13
74873;HTU21D;68776;44.762;37.698;2023-05-07T13:36:37;17.49;69.08
74873;HTU21D;68776;44.762;37.698;2023-05-07T13:37:40;17.50;69.07
74873;HTU21D;68776;44.762;37.698;2023-05-07T13:38:41;17.50;69.11
74873;HTU21D;68776;44.762;37.698;2023-05-07T13:39:42;17.49;69.16
74873;HTU21D;68776;44.762;37.698;2023-05-07T13:40:43;17.52;69.16
74873;HTU21D;68776;44.762;37.698;2023-05-07T13:41:44;17.58;69.14
74873;HTU21D;68776;44.762;37.698;2023-05-07T13:42:45;17.61;69.08
74873;HTU21D;68776;44.762;37.698;2023-05-07T13:43:46;17.64;0.00
74873;HTU21D;68776;44.762;37.698;2023-05-07T13:44:47;17.66;68.98
74873;HTU21D;68776;44.762;37.698;2023-05-07T13:45:48;17.70;68.94
74873;HTU21D;68776;44.762;37.698;2023-05-07T13:46:49;17.69;68.91
74873;HTU21D;68776;44.762;37.698;2023-05-07T13:47:50;17.70;68.91
74873;HTU21D;68776;44.762;37.698;2023-05-07T13:48:52;17.74;68.92
74873;HTU21D;68776;44.762;37.698;2023-05-07T13:49:52;17.73;68.92
74873;HTU21D;68776;44.762;37.698;2023-05-07T13:50:54;17.70;68.99
74873;HTU21D;68776;44.762;37.698;2023-05-07T13:51:54;17.65;69.10
74873;HTU21D;68776;44.762;37.698;2023-05-07T13:52:56;17.55;69.35
74873;HTU21D;68776;44.762;37.698;2023-05-07T13:53:57;17.49;69.45
74873;HTU21D;68776;44.762;37.698;2023-05-07T13:54:59;17.47;69.50
74873;HTU21D;68776;44.762;37.698;2023-05-07T13:56:00;17.46;69.52
74873;HTU21D;68776;44.762;37.698;2023-05-07T13:57:01;17.44;69.57
74873;HTU21D;68776;44.762;37.698;2023-05-07T13:58:02;17.44;69.64
74873;HTU21D;68776;44.762;37.698;2023-05-07T13:59:03;17.38;69.73
74873;HTU21D;68776;44.762;37.698;2023-05-07T14:00:05;17.38;69.77
74873;HTU21D;68776;44.762;37.698;2023-05-07T14:01:15;17.33;69.88
74873;HTU21D;68776;44.762;37.698;2023-05-07T14:02:16;17.25;70.01
74873;HTU21D;68776;44.762;37.698;2023-05-07T14:03:18;17.17;70.19
74873;HTU21D;68776;44.762;37.698;2023-05-07T14:04:20;17.10;70.39
74873;HTU21D;68776;44.762;37.698;2023-05-07T14:05:21;17.11;70.39
74873;HTU21D;68776;44.762;37.698;2023-05-07T14:06:23;17.11;70.40
74873;HTU21D;68776;44.762;37.698;2023-05-07T14:07:25;17.07;70.45
74873;HTU21D;68776;44.762;37.698;2023-05-07T14:08:26;17.04;70.52
74873;HTU21D;68776;44.762;37.698;2023-05-07T14:09:27;17.05;70.54
74873;HTU21D;68776;44.762;37.698;2023-05-07T14:10:27;17.05;70.49
74873;HTU21D;68776;44.762;37.698;2023-05-07T14:11:28;17.04;70.49